sensor_id;sensor_type;location;lat;lon;timestamp;P1;durP1;ratioP1;P2;durP2;ratioP2
67340;SDS011;54227;45.198;5.732;2022-08-20T00:02:22;1.40;;;1.00;;
67340;SDS011;54227;45.198;5.732;2022-08-20T00:04:48;1.48;;;1.00;;
67340;SDS011;54227;45.198;5.732;2022-08-20T00:07:13;1.60;;;1.10;;
67340;SDS011;54227;45.198;5.732;2022-08-20T00:09:39;1.50;;;1.10;;
67340;SDS011;54227;45.198;5.732;2022-08-20T00:12:05;1.67;;;1.00;;
67340;SDS011;54227;45.198;5.732;2022-08-20T00:14:32;2.38;;;1.25;;
67340;SDS011;54227;45.198;5.732;2022-08-20T00:16:58;2.25;;;1.20;;
67340;SDS011;54227;45.198;5.732;2022-08-20T00:19:23;2.35;;;1.00;;
67340;SDS011;54227;45.198;5.732;2022-08-20T00:21:48;1.23;;;1.00;;
67340;SDS011;54227;45.198;5.732;2022-08-20T00:24:14;1.73;;;1.17;;
67340;SDS011;54227;45.198;5.732;2022-08-20T00:26:40;1.75;;;1.15;;
67340;SDS011;54227;45.198;5.732;2022-08-20T00:29:05;1.80;;;1.20;;
67340;SDS011;54227;45.198;5.732;2022-08-20T00:31:30;1.58;;;1.00;;
67340;SDS011;54227;45.198;5.732;2022-08-20T00:33:56;2.05;;;1.17;;
67340;SDS011;54227;45.198;5.732;2022-08-20T00:36:21;2.00;;;1.10;;
67340;SDS011;54227;45.198;5.732;2022-08-20T00:38:47;1.60;;;1.20;;
67340;SDS011;54227;45.198;5.732;2022-08-20T00:41:14;1.63;;;1.10;;
67340;SDS011;54227;45.198;5.732;2022-08-20T00:43:45;1.60;;;1.02;;
67340;SDS011;54227;45.198;5.732;2022-08-20T00:46:14;1.88;;;1.30;;
67340;SDS011;54227;45.198;5.732;2022-08-20T00:48:41;1.75;;;1.30;;
67340;SDS011;54227;45.198;5.732;2022-08-20T00:51:56;2.17;;;1.42;;
67340;SDS011;54227;45.198;5.732;2022-08-20T00:54:08;2.17;;;1.10;;
67340;SDS011;54227;45.198;5.732;2022-08-20T00:56:34;1.60;;;1.00;;
67340;SDS011;54227;45.198;5.732;2022-08-20T00:59:03;1.65;;;1.10;;
67340;SDS011;54227;45.198;5.732;2022-08-20T01:01:35;1.75;;;1.10;;
67340;SDS011;54227;45.198;5.732;2022-08-20T01:04:02;1.83;;;1.20;;
67340;SDS011;54227;45.198;5.732;2022-08-20T01:06:29;1.60;;;1.10;;
67340;SDS011;54227;45.198;5.732;2022-08-20T01:08:55;1.85;;;1.27;;
67340;SDS011;54227;45.198;5.732;2022-08-20T01:11:21;1.98;;;1.02;;
67340;SDS011;54227;45.198;5.732;2022-08-20T01:13:56;1.30;;;1.00;;
67340;SDS011;54227;45.198;5.732;2022-08-20T01:16:24;1.73;;;1.17;;
67340;SDS011;54227;45.198;5.732;2022-08-20T01:18:53;2.15;;;1.30;;
67340;SDS011;54227;45.198;5.732;2022-08-20T01:21:22;2.10;;;1.30;;
67340;SDS011;54227;45.198;5.732;2022-08-20T01:23:54;2.33;;;1.10;;
67340;SDS011;54227;45.198;5.732;2022-08-20T01:26:28;1.65;;;1.10;;
67340;SDS011;54227;45.198;5.732;2022-08-20T01:31:29;1.45;;;1.00;;
67340;SDS011;54227;45.198;5.732;2022-08-20T01:33:57;1.58;;;1.10;;
67340;SDS011;54227;45.198;5.732;2022-08-20T01:36:25;1.63;;;1.10;;
67340;SDS011;54227;45.198;5.732;2022-08-20T01:39:14;1.70;;;1.08;;
67340;SDS011;54227;45.198;5.732;2022-08-20T01:44:47;2.08;;;1.27;;
67340;SDS011;54227;45.198;5.732;2022-08-20T01:49:44;1.60;;;1.20;;
67340;SDS011;54227;45.198;5.732;2022-08-20T01:52:19;1.77;;;1.10;;
67340;SDS011;54227;45.198;5.732;2022-08-20T01:54:52;1.60;;;1.10;;
67340;SDS011;54227;45.198;5.732;2022-08-20T01:57:19;1.48;;;1.10;;
67340;SDS011;54227;45.198;5.732;2022-08-20T01:59:44;1.50;;;1.10;;
67340;SDS011;54227;45.198;5.732;2022-08-20T02:02:13;2.15;;;1.20;;
67340;SDS011;54227;45.198;5.732;2022-08-20T02:04:39;1.70;;;1.20;;
67340;SDS011;54227;45.198;5.732;2022-08-20T02:07:06;1.70;;;1.13;;
67340;SDS011;54227;45.198;5.732;2022-08-20T02:09:37;2.05;;;1.20;;
67340;SDS011;54227;45.198;5.732;2022-08-20T02:12:04;1.48;;;0.98;;
67340;SDS011;54227;45.198;5.732;2022-08-20T02:14:31;1.70;;;1.15;;
67340;SDS011;54227;45.198;5.732;2022-08-20T02:16:57;2.05;;;1.35;;
67340;SDS011;54227;45.198;5.732;2022-08-20T02:22:16;1.80;;;1.13;;
67340;SDS011;54227;45.198;5.732;2022-08-20T02:24:45;1.35;;;1.00;;
67340;SDS011;54227;45.198;5.732;2022-08-20T02:27:11;1.63;;;1.25;;
67340;SDS011;54227;45.198;5.732;2022-08-20T02:29:37;2.10;;;1.20;;
67340;SDS011;54227;45.198;5.732;2022-08-20T02:32:03;1.90;;;1.23;;
67340;SDS011;54227;45.198;5.732;2022-08-20T02:34:30;1.27;;;0.95;;
67340;SDS011;54227;45.198;5.732;2022-08-20T02:36:58;1.67;;;1.13;;
67340;SDS011;54227;45.198;5.732;2022-08-20T02:39:25;1.33;;;0.90;;
67340;SDS011;54227;45.198;5.732;2022-08-20T02:41:50;3.58;;;1.27;;
67340;SDS011;54227;45.198;5.732;2022-08-20T02:44:16;1.70;;;1.10;;
67340;SDS011;54227;45.198;5.732;2022-08-20T02:46:44;1.42;;;1.08;;
67340;SDS011;54227;45.198;5.732;2022-08-20T02:49:10;1.50;;;1.10;;
67340;SDS011;54227;45.198;5.732;2022-08-20T02:51:35;2.08;;;1.00;;
67340;SDS011;54227;45.198;5.732;2022-08-20T02:54:01;1.60;;;1.00;;
67340;SDS011;54227;45.198;5.732;2022-08-20T02:56:26;1.48;;;1.05;;
67340;SDS011;54227;45.198;5.732;2022-08-20T02:58:52;1.50;;;1.13;;
67340;SDS011;54227;45.198;5.732;2022-08-20T03:01:18;2.22;;;1.42;;
67340;SDS011;54227;45.198;5.732;2022-08-20T03:03:43;1.90;;;1.30;;
67340;SDS011;54227;45.198;5.732;2022-08-20T03:06:11;2.00;;;1.27;;
67340;SDS011;54227;45.198;5.732;2022-08-20T03:08:37;1.48;;;1.10;;
67340;SDS011;54227;45.198;5.732;2022-08-20T03:11:04;1.77;;;1.20;;
67340;SDS011;54227;45.198;5.732;2022-08-20T03:13:31;1.83;;;1.38;;
67340;SDS011;54227;45.198;5.732;2022-08-20T03:15:58;1.85;;;1.30;;
67340;SDS011;54227;45.198;5.732;2022-08-20T03:18:29;1.63;;;1.20;;
67340;SDS011;54227;45.198;5.732;2022-08-20T03:23:23;1.70;;;1.13;;
67340;SDS011;54227;45.198;5.732;2022-08-20T03:25:48;1.35;;;1.00;;
67340;SDS011;54227;45.198;5.732;2022-08-20T03:28:14;1.52;;;1.08;;
67340;SDS011;54227;45.198;5.732;2022-08-20T03:30:41;1.50;;;1.05;;
67340;SDS011;54227;45.198;5.732;2022-08-20T03:33:07;1.90;;;1.20;;
67340;SDS011;54227;45.198;5.732;2022-08-20T03:35:33;1.73;;;1.30;;
67340;SDS011;54227;45.198;5.732;2022-08-20T03:38:00;1.70;;;1.25;;
67340;SDS011;54227;45.198;5.732;2022-08-20T03:40:31;1.65;;;1.10;;
67340;SDS011;54227;45.198;5.732;2022-08-20T03:42:58;1.50;;;1.10;;
67340;SDS011;54227;45.198;5.732;2022-08-20T03:45:24;1.52;;;1.20;;
67340;SDS011;54227;45.198;5.732;2022-08-20T03:47:51;1.35;;;1.08;;
67340;SDS011;54227;45.198;5.732;2022-08-20T03:50:19;1.60;;;1.10;;
67340;SDS011;54227;45.198;5.732;2022-08-20T03:52:47;1.58;;;1.10;;
67340;SDS011;54227;45.198;5.732;2022-08-20T03:55:13;1.67;;;1.17;;
67340;SDS011;54227;45.198;5.732;2022-08-20T03:57:43;1.55;;;1.10;;
67340;SDS011;54227;45.198;5.732;2022-08-20T04:00:10;2.78;;;1.23;;
67340;SDS011;54227;45.198;5.732;2022-08-20T04:02:37;1.67;;;1.13;;
67340;SDS011;54227;45.198;5.732;2022-08-20T04:05:04;1.75;;;1.30;;
67340;SDS011;54227;45.198;5.732;2022-08-20T04:07:30;1.95;;;1.17;;
67340;SDS011;54227;45.198;5.732;2022-08-20T04:09:55;1.60;;;1.23;;
67340;SDS011;54227;45.198;5.732;2022-08-20T04:12:21;1.73;;;1.25;;
67340;SDS011;54227;45.198;5.732;2022-08-20T04:14:48;1.80;;;1.20;;
67340;SDS011;54227;45.198;5.732;2022-08-20T04:17:15;1.55;;;1.05;;
67340;SDS011;54227;45.198;5.732;2022-08-20T04:19:41;1.60;;;1.10;;
67340;SDS011;54227;45.198;5.732;2022-08-20T04:22:08;1.70;;;1.13;;
67340;SDS011;54227;45.198;5.732;2022-08-20T04:24:37;1.67;;;1.20;;
67340;SDS011;54227;45.198;5.732;2022-08-20T04:27:05;1.80;;;1.30;;
67340;SDS011;54227;45.198;5.732;2022-08-20T04:29:33;2.03;;;1.30;;
67340;SDS011;54227;45.198;5.732;2022-08-20T04:32:00;1.45;;;1.20;;
67340;SDS011;54227;45.198;5.732;2022-08-20T04:34:27;1.67;;;1.15;;
67340;SDS011;54227;45.198;5.732;2022-08-20T04:36:53;1.60;;;1.10;;
67340;SDS011;54227;45.198;5.732;2022-08-20T04:39:18;1.70;;;1.25;;
67340;SDS011;54227;45.198;5.732;2022-08-20T04:41:44;1.60;;;1.10;;
67340;SDS011;54227;45.198;5.732;2022-08-20T04:44:09;1.90;;;1.23;;
67340;SDS011;54227;45.198;5.732;2022-08-20T04:46:35;1.55;;;1.02;;
67340;SDS011;54227;45.198;5.732;2022-08-20T04:49:03;1.80;;;1.13;;
67340;SDS011;54227;45.198;5.732;2022-08-20T04:51:29;1.70;;;1.20;;
67340;SDS011;54227;45.198;5.732;2022-08-20T04:53:55;1.42;;;1.10;;
67340;SDS011;54227;45.198;5.732;2022-08-20T04:56:22;1.85;;;1.30;;
67340;SDS011;54227;45.198;5.732;2022-08-20T04:58:51;4.00;;;1.20;;
67340;SDS011;54227;45.198;5.732;2022-08-20T05:01:19;1.77;;;1.20;;
67340;SDS011;54227;45.198;5.732;2022-08-20T05:03:45;1.85;;;1.20;;
67340;SDS011;54227;45.198;5.732;2022-08-20T05:06:13;1.80;;;1.10;;
67340;SDS011;54227;45.198;5.732;2022-08-20T05:08:41;1.92;;;1.20;;
67340;SDS011;54227;45.198;5.732;2022-08-20T05:11:07;1.80;;;1.25;;
67340;SDS011;54227;45.198;5.732;2022-08-20T05:13:36;1.98;;;1.38;;
67340;SDS011;54227;45.198;5.732;2022-08-20T05:16:01;1.92;;;1.30;;
67340;SDS011;54227;45.198;5.732;2022-08-20T05:18:28;1.50;;;1.00;;
67340;SDS011;54227;45.198;5.732;2022-08-20T05:20:57;1.20;;;1.00;;
67340;SDS011;54227;45.198;5.732;2022-08-20T05:23:28;1.70;;;1.15;;
67340;SDS011;54227;45.198;5.732;2022-08-20T05:25:53;2.00;;;1.00;;
67340;SDS011;54227;45.198;5.732;2022-08-20T05:28:23;1.77;;;1.25;;
67340;SDS011;54227;45.198;5.732;2022-08-20T05:30:50;1.85;;;1.10;;
67340;SDS011;54227;45.198;5.732;2022-08-20T05:33:17;1.70;;;1.08;;
67340;SDS011;54227;45.198;5.732;2022-08-20T05:35:45;2.83;;;1.20;;
67340;SDS011;54227;45.198;5.732;2022-08-20T05:38:13;1.83;;;1.30;;
67340;SDS011;54227;45.198;5.732;2022-08-20T05:40:40;1.67;;;1.25;;
67340;SDS011;54227;45.198;5.732;2022-08-20T05:43:06;1.70;;;1.10;;
67340;SDS011;54227;45.198;5.732;2022-08-20T05:45:33;1.90;;;1.30;;
67340;SDS011;54227;45.198;5.732;2022-08-20T05:48:06;1.67;;;1.15;;
67340;SDS011;54227;45.198;5.732;2022-08-20T05:50:35;1.75;;;1.10;;
67340;SDS011;54227;45.198;5.732;2022-08-20T05:53:02;1.80;;;1.30;;
67340;SDS011;54227;45.198;5.732;2022-08-20T05:55:28;2.13;;;1.40;;
67340;SDS011;54227;45.198;5.732;2022-08-20T05:57:58;1.55;;;1.02;;
67340;SDS011;54227;45.198;5.732;2022-08-20T06:00:26;1.60;;;1.15;;
67340;SDS011;54227;45.198;5.732;2022-08-20T06:02:52;1.90;;;1.20;;
67340;SDS011;54227;45.198;5.732;2022-08-20T06:05:37;1.60;;;1.10;;
67340;SDS011;54227;45.198;5.732;2022-08-20T06:08:06;1.77;;;1.10;;
67340;SDS011;54227;45.198;5.732;2022-08-20T06:10:33;2.33;;;1.30;;
67340;SDS011;54227;45.198;5.732;2022-08-20T06:13:00;1.70;;;1.13;;
67340;SDS011;54227;45.198;5.732;2022-08-20T06:15:27;1.63;;;1.15;;
67340;SDS011;54227;45.198;5.732;2022-08-20T06:17:56;1.90;;;1.20;;
67340;SDS011;54227;45.198;5.732;2022-08-20T06:20:23;1.52;;;1.13;;
67340;SDS011;54227;45.198;5.732;2022-08-20T06:22:49;1.50;;;1.10;;
67340;SDS011;54227;45.198;5.732;2022-08-20T06:25:14;2.20;;;1.33;;
67340;SDS011;54227;45.198;5.732;2022-08-20T06:27:41;2.20;;;1.30;;
67340;SDS011;54227;45.198;5.732;2022-08-20T06:30:07;2.35;;;1.33;;
67340;SDS011;54227;45.198;5.732;2022-08-20T06:32:34;1.70;;;1.20;;
67340;SDS011;54227;45.198;5.732;2022-08-20T06:35:00;1.85;;;1.30;;
67340;SDS011;54227;45.198;5.732;2022-08-20T06:37:27;2.50;;;1.33;;
67340;SDS011;54227;45.198;5.732;2022-08-20T06:39:58;1.88;;;1.30;;
67340;SDS011;54227;45.198;5.732;2022-08-20T06:42:25;1.67;;;1.15;;
67340;SDS011;54227;45.198;5.732;2022-08-20T06:44:52;1.73;;;1.10;;
67340;SDS011;54227;45.198;5.732;2022-08-20T06:47:18;1.30;;;0.90;;
67340;SDS011;54227;45.198;5.732;2022-08-20T06:49:44;1.73;;;1.20;;
67340;SDS011;54227;45.198;5.732;2022-08-20T06:52:11;1.80;;;1.15;;
67340;SDS011;54227;45.198;5.732;2022-08-20T06:54:38;1.77;;;1.23;;
67340;SDS011;54227;45.198;5.732;2022-08-20T06:57:03;2.08;;;1.30;;
67340;SDS011;54227;45.198;5.732;2022-08-20T06:59:29;1.55;;;1.08;;
67340;SDS011;54227;45.198;5.732;2022-08-20T07:01:55;1.92;;;1.20;;
67340;SDS011;54227;45.198;5.732;2022-08-20T07:04:26;1.60;;;1.10;;
67340;SDS011;54227;45.198;5.732;2022-08-20T07:06:52;1.77;;;1.20;;
67340;SDS011;54227;45.198;5.732;2022-08-20T07:09:22;2.00;;;1.30;;
67340;SDS011;54227;45.198;5.732;2022-08-20T07:11:49;1.40;;;1.10;;
67340;SDS011;54227;45.198;5.732;2022-08-20T07:14:15;1.73;;;1.23;;
67340;SDS011;54227;45.198;5.732;2022-08-20T07:16:42;1.55;;;1.20;;
67340;SDS011;54227;45.198;5.732;2022-08-20T07:19:08;1.60;;;1.10;;
67340;SDS011;54227;45.198;5.732;2022-08-20T07:21:33;1.48;;;1.02;;
67340;SDS011;54227;45.198;5.732;2022-08-20T07:23:59;1.50;;;1.00;;
67340;SDS011;54227;45.198;5.732;2022-08-20T07:26:25;1.65;;;1.02;;
67340;SDS011;54227;45.198;5.732;2022-08-20T07:28:51;1.42;;;1.00;;
67340;SDS011;54227;45.198;5.732;2022-08-20T07:31:17;1.60;;;1.10;;
67340;SDS011;54227;45.198;5.732;2022-08-20T07:34:01;2.10;;;1.20;;
67340;SDS011;54227;45.198;5.732;2022-08-20T07:36:27;1.30;;;1.00;;
67340;SDS011;54227;45.198;5.732;2022-08-20T07:38:53;1.70;;;1.15;;
67340;SDS011;54227;45.198;5.732;2022-08-20T07:41:18;1.80;;;1.15;;
67340;SDS011;54227;45.198;5.732;2022-08-20T07:43:45;1.45;;;1.15;;
67340;SDS011;54227;45.198;5.732;2022-08-20T07:46:12;1.55;;;1.08;;
67340;SDS011;54227;45.198;5.732;2022-08-20T07:48:41;1.50;;;1.10;;
67340;SDS011;54227;45.198;5.732;2022-08-20T07:51:11;1.60;;;1.02;;
67340;SDS011;54227;45.198;5.732;2022-08-20T07:53:39;1.60;;;1.02;;
67340;SDS011;54227;45.198;5.732;2022-08-20T07:56:06;1.83;;;1.10;;
67340;SDS011;54227;45.198;5.732;2022-08-20T07:58:34;1.20;;;0.90;;
67340;SDS011;54227;45.198;5.732;2022-08-20T08:01:02;1.42;;;1.10;;
67340;SDS011;54227;45.198;5.732;2022-08-20T08:03:29;2.22;;;1.17;;
67340;SDS011;54227;45.198;5.732;2022-08-20T08:05:56;1.90;;;1.23;;
67340;SDS011;54227;45.198;5.732;2022-08-20T08:08:25;1.60;;;1.13;;
67340;SDS011;54227;45.198;5.732;2022-08-20T08:10:54;1.70;;;1.10;;
67340;SDS011;54227;45.198;5.732;2022-08-20T08:13:24;1.70;;;1.10;;
67340;SDS011;54227;45.198;5.732;2022-08-20T08:15:51;1.45;;;1.00;;
67340;SDS011;54227;45.198;5.732;2022-08-20T08:18:22;1.65;;;1.20;;
67340;SDS011;54227;45.198;5.732;2022-08-20T08:20:50;1.05;;;0.82;;
67340;SDS011;54227;45.198;5.732;2022-08-20T08:23:18;1.42;;;1.08;;
67340;SDS011;54227;45.198;5.732;2022-08-20T08:25:48;1.20;;;1.00;;
67340;SDS011;54227;45.198;5.732;2022-08-20T08:28:15;1.40;;;1.10;;
67340;SDS011;54227;45.198;5.732;2022-08-20T08:30:43;1.63;;;1.13;;
67340;SDS011;54227;45.198;5.732;2022-08-20T08:33:25;1.50;;;1.08;;
67340;SDS011;54227;45.198;5.732;2022-08-20T08:36:00;1.73;;;1.23;;
67340;SDS011;54227;45.198;5.732;2022-08-20T08:38:29;1.65;;;1.20;;
67340;SDS011;54227;45.198;5.732;2022-08-20T08:41:02;1.70;;;0.90;;
67340;SDS011;54227;45.198;5.732;2022-08-20T08:43:50;1.13;;;0.80;;
67340;SDS011;54227;45.198;5.732;2022-08-20T08:46:18;1.67;;;1.05;;
67340;SDS011;54227;45.198;5.732;2022-08-20T08:48:48;1.65;;;1.27;;
67340;SDS011;54227;45.198;5.732;2022-08-20T08:51:20;1.63;;;0.98;;
67340;SDS011;54227;45.198;5.732;2022-08-20T08:53:53;1.73;;;1.10;;
67340;SDS011;54227;45.198;5.732;2022-08-20T08:56:26;1.52;;;1.00;;
67340;SDS011;54227;45.198;5.732;2022-08-20T08:58:56;1.45;;;1.08;;
67340;SDS011;54227;45.198;5.732;2022-08-20T09:01:24;1.80;;;0.90;;
67340;SDS011;54227;45.198;5.732;2022-08-20T09:03:50;1.63;;;1.10;;
67340;SDS011;54227;45.198;5.732;2022-08-20T09:06:18;1.73;;;1.10;;
67340;SDS011;54227;45.198;5.732;2022-08-20T09:08:47;2.42;;;0.90;;
67340;SDS011;54227;45.198;5.732;2022-08-20T09:11:15;1.50;;;1.10;;
67340;SDS011;54227;45.198;5.732;2022-08-20T09:13:43;1.23;;;0.90;;
67340;SDS011;54227;45.198;5.732;2022-08-20T09:16:09;1.42;;;1.00;;
67340;SDS011;54227;45.198;5.732;2022-08-20T09:18:35;1.70;;;1.20;;
67340;SDS011;54227;45.198;5.732;2022-08-20T09:21:01;1.50;;;1.02;;
67340;SDS011;54227;45.198;5.732;2022-08-20T09:23:26;1.95;;;1.05;;
67340;SDS011;54227;45.198;5.732;2022-08-20T09:25:52;1.55;;;1.10;;
67340;SDS011;54227;45.198;5.732;2022-08-20T09:28:17;1.38;;;1.00;;
67340;SDS011;54227;45.198;5.732;2022-08-20T09:30:42;1.50;;;1.08;;
67340;SDS011;54227;45.198;5.732;2022-08-20T09:33:08;1.58;;;1.05;;
67340;SDS011;54227;45.198;5.732;2022-08-20T09:35:36;1.50;;;0.90;;
67340;SDS011;54227;45.198;5.732;2022-08-20T09:38:02;1.40;;;1.00;;
67340;SDS011;54227;45.198;5.732;2022-08-20T09:40:28;1.88;;;1.23;;
67340;SDS011;54227;45.198;5.732;2022-08-20T09:42:53;1.42;;;1.00;;
67340;SDS011;54227;45.198;5.732;2022-08-20T09:45:19;1.63;;;1.10;;
67340;SDS011;54227;45.198;5.732;2022-08-20T09:47:44;1.20;;;0.90;;
67340;SDS011;54227;45.198;5.732;2022-08-20T09:50:10;1.40;;;1.00;;
67340;SDS011;54227;45.198;5.732;2022-08-20T09:52:40;1.40;;;1.02;;
67340;SDS011;54227;45.198;5.732;2022-08-20T09:57:37;1.42;;;0.95;;
67340;SDS011;54227;45.198;5.732;2022-08-20T10:00:05;1.50;;;1.00;;
67340;SDS011;54227;45.198;5.732;2022-08-20T10:02:41;1.27;;;0.90;;
67340;SDS011;54227;45.198;5.732;2022-08-20T10:05:07;1.27;;;0.93;;
67340;SDS011;54227;45.198;5.732;2022-08-20T10:07:33;1.38;;;0.98;;
67340;SDS011;54227;45.198;5.732;2022-08-20T10:09:59;1.70;;;1.00;;
67340;SDS011;54227;45.198;5.732;2022-08-20T10:12:26;1.20;;;0.90;;
67340;SDS011;54227;45.198;5.732;2022-08-20T10:14:52;1.25;;;0.95;;
67340;SDS011;54227;45.198;5.732;2022-08-20T10:17:19;1.58;;;1.00;;
67340;SDS011;54227;45.198;5.732;2022-08-20T10:19:45;1.10;;;0.82;;
67340;SDS011;54227;45.198;5.732;2022-08-20T10:22:10;1.25;;;0.90;;
67340;SDS011;54227;45.198;5.732;2022-08-20T10:24:36;1.88;;;1.02;;
67340;SDS011;54227;45.198;5.732;2022-08-20T10:27:01;1.13;;;0.80;;
67340;SDS011;54227;45.198;5.732;2022-08-20T10:29:27;1.23;;;0.90;;
67340;SDS011;54227;45.198;5.732;2022-08-20T10:31:54;1.35;;;1.00;;
67340;SDS011;54227;45.198;5.732;2022-08-20T10:34:21;1.20;;;0.90;;
67340;SDS011;54227;45.198;5.732;2022-08-20T10:36:48;1.42;;;1.10;;
67340;SDS011;54227;45.198;5.732;2022-08-20T10:39:13;1.33;;;0.93;;
67340;SDS011;54227;45.198;5.732;2022-08-20T10:41:39;1.60;;;1.00;;
67340;SDS011;54227;45.198;5.732;2022-08-20T10:44:04;1.70;;;1.02;;
67340;SDS011;54227;45.198;5.732;2022-08-20T10:46:30;1.55;;;1.00;;
67340;SDS011;54227;45.198;5.732;2022-08-20T10:48:55;1.30;;;0.85;;
67340;SDS011;54227;45.198;5.732;2022-08-20T10:51:21;1.52;;;0.95;;
67340;SDS011;54227;45.198;5.732;2022-08-20T10:53:46;1.30;;;0.90;;
67340;SDS011;54227;45.198;5.732;2022-08-20T10:56:11;1.02;;;0.90;;
67340;SDS011;54227;45.198;5.732;2022-08-20T10:58:37;1.20;;;0.90;;
67340;SDS011;54227;45.198;5.732;2022-08-20T11:01:02;1.13;;;0.82;;
67340;SDS011;54227;45.198;5.732;2022-08-20T11:03:27;1.60;;;1.00;;
67340;SDS011;54227;45.198;5.732;2022-08-20T11:05:53;1.77;;;1.02;;
67340;SDS011;54227;45.198;5.732;2022-08-20T11:08:18;1.33;;;0.95;;
67340;SDS011;54227;45.198;5.732;2022-08-20T11:10:47;1.00;;;0.80;;
67340;SDS011;54227;45.198;5.732;2022-08-20T11:13:12;1.38;;;1.00;;
67340;SDS011;54227;45.198;5.732;2022-08-20T11:15:38;1.33;;;0.93;;
67340;SDS011;54227;45.198;5.732;2022-08-20T11:18:06;1.23;;;0.90;;
67340;SDS011;54227;45.198;5.732;2022-08-20T11:20:33;1.40;;;1.00;;
67340;SDS011;54227;45.198;5.732;2022-08-20T11:22:58;1.25;;;0.85;;
67340;SDS011;54227;45.198;5.732;2022-08-20T11:25:24;1.40;;;0.95;;
67340;SDS011;54227;45.198;5.732;2022-08-20T11:27:50;1.27;;;0.88;;
67340;SDS011;54227;45.198;5.732;2022-08-20T11:30:18;1.48;;;0.95;;
67340;SDS011;54227;45.198;5.732;2022-08-20T11:32:58;1.25;;;0.82;;
67340;SDS011;54227;45.198;5.732;2022-08-20T11:35:25;1.10;;;0.88;;
67340;SDS011;54227;45.198;5.732;2022-08-20T11:37:53;1.80;;;1.15;;
67340;SDS011;54227;45.198;5.732;2022-08-20T11:40:19;1.50;;;1.00;;
67340;SDS011;54227;45.198;5.732;2022-08-20T11:42:45;1.73;;;1.08;;
67340;SDS011;54227;45.198;5.732;2022-08-20T11:45:11;1.45;;;0.90;;
67340;SDS011;54227;45.198;5.732;2022-08-20T11:47:38;1.40;;;1.00;;
67340;SDS011;54227;45.198;5.732;2022-08-20T11:50:07;1.10;;;0.80;;
67340;SDS011;54227;45.198;5.732;2022-08-20T11:52:35;1.27;;;0.88;;
67340;SDS011;54227;45.198;5.732;2022-08-20T11:55:03;1.25;;;0.82;;
67340;SDS011;54227;45.198;5.732;2022-08-20T11:57:31;1.08;;;0.80;;
67340;SDS011;54227;45.198;5.732;2022-08-20T11:59:59;1.52;;;1.00;;
67340;SDS011;54227;45.198;5.732;2022-08-20T12:02:26;1.20;;;0.82;;
67340;SDS011;54227;45.198;5.732;2022-08-20T12:04:52;0.95;;;0.75;;
67340;SDS011;54227;45.198;5.732;2022-08-20T12:07:20;1.45;;;0.90;;
67340;SDS011;54227;45.198;5.732;2022-08-20T12:09:47;1.20;;;0.90;;
67340;SDS011;54227;45.198;5.732;2022-08-20T12:12:13;1.10;;;0.80;;
67340;SDS011;54227;45.198;5.732;2022-08-20T12:14:39;1.30;;;1.00;;
67340;SDS011;54227;45.198;5.732;2022-08-20T12:17:06;1.00;;;0.80;;
67340;SDS011;54227;45.198;5.732;2022-08-20T12:19:47;0.82;;;0.68;;
67340;SDS011;54227;45.198;5.732;2022-08-20T12:22:14;1.05;;;0.82;;
67340;SDS011;54227;45.198;5.732;2022-08-20T12:24:40;1.30;;;0.85;;
67340;SDS011;54227;45.198;5.732;2022-08-20T12:27:12;1.15;;;0.80;;
67340;SDS011;54227;45.198;5.732;2022-08-20T12:29:39;1.23;;;0.95;;
67340;SDS011;54227;45.198;5.732;2022-08-20T12:32:06;1.13;;;0.77;;
67340;SDS011;54227;45.198;5.732;2022-08-20T12:34:38;1.30;;;0.80;;
67340;SDS011;54227;45.198;5.732;2022-08-20T12:37:10;1.25;;;0.80;;
67340;SDS011;54227;45.198;5.732;2022-08-20T12:39:42;1.25;;;0.98;;
67340;SDS011;54227;45.198;5.732;2022-08-20T12:42:10;1.00;;;0.77;;
67340;SDS011;54227;45.198;5.732;2022-08-20T12:44:36;1.15;;;0.70;;
67340;SDS011;54227;45.198;5.732;2022-08-20T12:47:10;0.90;;;0.75;;
67340;SDS011;54227;45.198;5.732;2022-08-20T12:49:42;1.02;;;0.80;;
67340;SDS011;54227;45.198;5.732;2022-08-20T12:52:10;1.00;;;0.82;;
67340;SDS011;54227;45.198;5.732;2022-08-20T12:54:37;1.15;;;0.75;;
67340;SDS011;54227;45.198;5.732;2022-08-20T12:57:02;0.82;;;0.75;;
67340;SDS011;54227;45.198;5.732;2022-08-20T12:59:28;1.17;;;0.90;;
67340;SDS011;54227;45.198;5.732;2022-08-20T13:01:54;2.05;;;0.90;;
67340;SDS011;54227;45.198;5.732;2022-08-20T13:04:20;1.00;;;0.80;;
67340;SDS011;54227;45.198;5.732;2022-08-20T13:06:45;1.52;;;0.88;;
67340;SDS011;54227;45.198;5.732;2022-08-20T13:09:11;1.15;;;0.90;;
67340;SDS011;54227;45.198;5.732;2022-08-20T13:11:37;1.20;;;0.70;;
67340;SDS011;54227;45.198;5.732;2022-08-20T13:14:02;1.13;;;0.80;;
67340;SDS011;54227;45.198;5.732;2022-08-20T13:16:28;1.00;;;0.70;;
67340;SDS011;54227;45.198;5.732;2022-08-20T13:18:54;1.00;;;0.80;;
67340;SDS011;54227;45.198;5.732;2022-08-20T13:21:19;0.90;;;0.70;;
67340;SDS011;54227;45.198;5.732;2022-08-20T13:23:45;1.00;;;0.75;;
67340;SDS011;54227;45.198;5.732;2022-08-20T13:26:10;1.40;;;0.98;;
67340;SDS011;54227;45.198;5.732;2022-08-20T13:28:36;1.10;;;0.80;;
67340;SDS011;54227;45.198;5.732;2022-08-20T13:31:01;1.17;;;0.88;;
67340;SDS011;54227;45.198;5.732;2022-08-20T13:33:27;1.08;;;0.70;;
67340;SDS011;54227;45.198;5.732;2022-08-20T13:35:54;1.20;;;0.85;;
67340;SDS011;54227;45.198;5.732;2022-08-20T13:38:20;1.08;;;0.70;;
67340;SDS011;54227;45.198;5.732;2022-08-20T13:40:46;1.02;;;0.80;;
67340;SDS011;54227;45.198;5.732;2022-08-20T13:43:15;1.48;;;0.77;;
67340;SDS011;54227;45.198;5.732;2022-08-20T13:45:41;1.23;;;0.80;;
67340;SDS011;54227;45.198;5.732;2022-08-20T13:48:07;0.93;;;0.60;;
67340;SDS011;54227;45.198;5.732;2022-08-20T13:50:33;0.90;;;0.70;;
67340;SDS011;54227;45.198;5.732;2022-08-20T13:52:59;1.50;;;0.90;;
67340;SDS011;54227;45.198;5.732;2022-08-20T13:55:25;1.17;;;0.80;;
67340;SDS011;54227;45.198;5.732;2022-08-20T13:57:53;1.27;;;0.85;;
67340;SDS011;54227;45.198;5.732;2022-08-20T14:00:24;1.17;;;0.80;;
67340;SDS011;54227;45.198;5.732;2022-08-20T14:02:52;1.08;;;0.77;;
67340;SDS011;54227;45.198;5.732;2022-08-20T14:05:18;1.23;;;0.80;;
67340;SDS011;54227;45.198;5.732;2022-08-20T14:07:44;1.05;;;0.80;;
67340;SDS011;54227;45.198;5.732;2022-08-20T14:10:12;1.45;;;0.90;;
67340;SDS011;54227;45.198;5.732;2022-08-20T14:12:42;0.75;;;0.63;;
67340;SDS011;54227;45.198;5.732;2022-08-20T14:15:08;1.10;;;0.70;;
67340;SDS011;54227;45.198;5.732;2022-08-20T14:17:39;0.85;;;0.68;;
67340;SDS011;54227;45.198;5.732;2022-08-20T14:20:08;0.87;;;0.70;;
67340;SDS011;54227;45.198;5.732;2022-08-20T14:22:36;1.10;;;0.80;;
67340;SDS011;54227;45.198;5.732;2022-08-20T14:25:03;1.38;;;0.88;;
67340;SDS011;54227;45.198;5.732;2022-08-20T14:27:30;0.90;;;0.70;;
67340;SDS011;54227;45.198;5.732;2022-08-20T14:29:57;0.82;;;0.70;;
67340;SDS011;54227;45.198;5.732;2022-08-20T14:32:23;1.10;;;0.70;;
67340;SDS011;54227;45.198;5.732;2022-08-20T14:34:48;1.02;;;0.80;;
67340;SDS011;54227;45.198;5.732;2022-08-20T14:37:15;1.00;;;0.70;;
67340;SDS011;54227;45.198;5.732;2022-08-20T14:39:43;0.80;;;0.70;;
67340;SDS011;54227;45.198;5.732;2022-08-20T14:42:10;0.93;;;0.60;;
67340;SDS011;54227;45.198;5.732;2022-08-20T14:44:37;0.80;;;0.70;;
67340;SDS011;54227;45.198;5.732;2022-08-20T14:47:14;0.82;;;0.60;;
67340;SDS011;54227;45.198;5.732;2022-08-20T14:49:39;0.90;;;0.60;;
67340;SDS011;54227;45.198;5.732;2022-08-20T14:52:05;1.13;;;0.80;;
67340;SDS011;54227;45.198;5.732;2022-08-20T14:54:31;0.95;;;0.70;;
67340;SDS011;54227;45.198;5.732;2022-08-20T14:56:57;0.88;;;0.70;;
67340;SDS011;54227;45.198;5.732;2022-08-20T14:59:23;0.93;;;0.70;;
67340;SDS011;54227;45.198;5.732;2022-08-20T15:01:48;1.02;;;0.75;;
67340;SDS011;54227;45.198;5.732;2022-08-20T15:04:14;0.80;;;0.63;;
67340;SDS011;54227;45.198;5.732;2022-08-20T15:06:39;0.93;;;0.60;;